sensor_id;sensor_type;location;lat;lon;timestamp;temperature;humidity
48946;DHT22;34999;50.940;3.998;2022-07-23T00:01:28;15.10;99.90
48946;DHT22;34999;50.940;3.998;2022-07-23T00:03:58;15.00;99.90
48946;DHT22;34999;50.940;3.998;2022-07-23T00:06:26;15.00;99.90
48946;DHT22;34999;50.940;3.998;2022-07-23T00:08:55;15.00;99.90
48946;DHT22;34999;50.940;3.998;2022-07-23T00:11:23;14.90;99.90
48946;DHT22;34999;50.940;3.998;2022-07-23T00:13:52;14.90;99.90
48946;DHT22;34999;50.940;3.998;2022-07-23T00:16:22;14.90;99.90
48946;DHT22;34999;50.940;3.998;2022-07-23T00:18:50;14.90;99.90
48946;DHT22;34999;50.940;3.998;2022-07-23T00:21:20;14.80;99.90
48946;DHT22;34999;50.940;3.998;2022-07-23T00:23:49;14.80;99.90
48946;DHT22;34999;50.940;3.998;2022-07-23T00:26:17;14.80;99.90
48946;DHT22;34999;50.940;3.998;2022-07-23T00:28:45;14.80;99.90
48946;DHT22;34999;50.940;3.998;2022-07-23T00:31:14;14.70;99.90
48946;DHT22;34999;50.940;3.998;2022-07-23T00:33:42;14.70;99.90
48946;DHT22;34999;50.940;3.998;2022-07-23T00:36:11;14.70;99.90
48946;DHT22;34999;50.940;3.998;2022-07-23T00:38:41;14.70;99.90
48946;DHT22;34999;50.940;3.998;2022-07-23T00:41:10;14.70;99.90
48946;DHT22;34999;50.940;3.998;2022-07-23T00:43:38;14.70;99.90
48946;DHT22;34999;50.940;3.998;2022-07-23T00:46:07;14.70;99.90
48946;DHT22;34999;50.940;3.998;2022-07-23T00:48:35;14.60;99.90
48946;DHT22;34999;50.940;3.998;2022-07-23T00:51:04;14.60;99.90
48946;DHT22;34999;50.940;3.998;2022-07-23T00:53:33;14.50;99.90
48946;DHT22;34999;50.940;3.998;2022-07-23T00:56:03;14.50;99.90
48946;DHT22;34999;50.940;3.998;2022-07-23T00:58:37;14.40;99.90
48946;DHT22;34999;50.940;3.998;2022-07-23T01:01:07;14.40;99.90
48946;DHT22;34999;50.940;3.998;2022-07-23T01:03:36;14.30;99.90
48946;DHT22;34999;50.940;3.998;2022-07-23T01:06:08;14.30;99.90
48946;DHT22;34999;50.940;3.998;2022-07-23T01:08:36;14.20;99.90
48946;DHT22;34999;50.940;3.998;2022-07-23T01:11:08;14.20;99.90
48946;DHT22;34999;50.940;3.998;2022-07-23T01:13:40;14.20;99.90
48946;DHT22;34999;50.940;3.998;2022-07-23T01:16:09;14.20;99.90
48946;DHT22;34999;50.940;3.998;2022-07-23T01:18:37;14.20;99.90
48946;DHT22;34999;50.940;3.998;2022-07-23T01:21:07;14.20;99.90
48946;DHT22;34999;50.940;3.998;2022-07-23T01:23:38;14.20;99.90
48946;DHT22;34999;50.940;3.998;2022-07-23T01:26:06;14.10;99.90
48946;DHT22;34999;50.940;3.998;2022-07-23T01:28:37;14.10;99.90
48946;DHT22;34999;50.940;3.998;2022-07-23T01:31:06;14.10;99.90
48946;DHT22;34999;50.940;3.998;2022-07-23T01:33:34;14.10;99.90
48946;DHT22;34999;50.940;3.998;2022-07-23T01:36:03;14.00;99.90
48946;DHT22;34999;50.940;3.998;2022-07-23T01:38:31;14.00;99.90
48946;DHT22;34999;50.940;3.998;2022-07-23T01:41:01;14.00;99.90
48946;DHT22;34999;50.940;3.998;2022-07-23T01:43:31;13.90;99.90
48946;DHT22;34999;50.940;3.998;2022-07-23T01:46:00;13.90;99.90
48946;DHT22;34999;50.940;3.998;2022-07-23T01:48:29;13.80;99.90
48946;DHT22;34999;50.940;3.998;2022-07-23T01:50:58;13.80;99.90
48946;DHT22;34999;50.940;3.998;2022-07-23T01:53:26;13.80;99.90
48946;DHT22;34999;50.940;3.998;2022-07-23T01:55:55;13.80;99.90
48946;DHT22;34999;50.940;3.998;2022-07-23T01:58:25;13.80;99.90
48946;DHT22;34999;50.940;3.998;2022-07-23T02:00:54;13.80;99.90
48946;DHT22;34999;50.940;3.998;2022-07-23T02:03:23;13.80;99.90
48946;DHT22;34999;50.940;3.998;2022-07-23T02:05:52;13.80;99.90
48946;DHT22;34999;50.940;3.998;2022-07-23T02:08:20;13.80;99.90
48946;DHT22;34999;50.940;3.998;2022-07-23T02:10:49;13.80;99.90
48946;DHT22;34999;50.940;3.998;2022-07-23T02:13:18;13.80;99.90
48946;DHT22;34999;50.940;3.998;2022-07-23T02:15:48;13.80;99.90
48946;DHT22;34999;50.940;3.998;2022-07-23T02:18:19;13.70;99.90
48946;DHT22;34999;50.940;3.998;2022-07-23T02:20:47;13.70;99.90
48946;DHT22;34999;50.940;3.998;2022-07-23T02:23:16;13.60;99.90
48946;DHT22;34999;50.940;3.998;2022-07-23T02:25:44;13.60;99.90
48946;DHT22;34999;50.940;3.998;2022-07-23T02:28:12;13.50;99.90
48946;DHT22;34999;50.940;3.998;2022-07-23T02:30:41;13.50;99.90
48946;DHT22;34999;50.940;3.998;2022-07-23T02:33:12;13.60;99.90
48946;DHT22;34999;50.940;3.998;2022-07-23T02:35:41;13.50;99.90
48946;DHT22;34999;50.940;3.998;2022-07-23T02:38:09;13.50;99.90
48946;DHT22;34999;50.940;3.998;2022-07-23T02:40:41;13.50;99.90
48946;DHT22;34999;50.940;3.998;2022-07-23T02:43:09;13.50;99.90
48946;DHT22;34999;50.940;3.998;2022-07-23T02:45:37;13.40;99.90
48946;DHT22;34999;50.940;3.998;2022-07-23T02:48:06;13.40;99.90
48946;DHT22;34999;50.940;3.998;2022-07-23T02:50:36;13.40;99.90
48946;DHT22;34999;50.940;3.998;2022-07-23T02:53:04;13.50;99.90
48946;DHT22;34999;50.940;3.998;2022-07-23T02:55:33;13.40;99.90
48946;DHT22;34999;50.940;3.998;2022-07-23T02:58:02;13.40;99.90
48946;DHT22;34999;50.940;3.998;2022-07-23T03:00:30;13.40;99.90
48946;DHT22;34999;50.940;3.998;2022-07-23T03:02:59;13.40;99.90
48946;DHT22;34999;50.940;3.998;2022-07-23T03:05:28;13.40;99.90
48946;DHT22;34999;50.940;3.998;2022-07-23T03:07:58;13.30;99.90
48946;DHT22;34999;50.940;3.998;2022-07-23T03:10:26;13.20;99.90
48946;DHT22;34999;50.940;3.998;2022-07-23T03:12:55;13.10;99.90
48946;DHT22;34999;50.940;3.998;2022-07-23T03:15:23;13.10;99.90
48946;DHT22;34999;50.940;3.998;2022-07-23T03:17:52;13.10;99.90
48946;DHT22;34999;50.940;3.998;2022-07-23T03:20:20;13.20;99.90
48946;DHT22;34999;50.940;3.998;2022-07-23T03:22:51;13.20;99.90
48946;DHT22;34999;50.940;3.998;2022-07-23T03:25:21;13.20;99.90
48946;DHT22;34999;50.940;3.998;2022-07-23T03:27:50;13.10;99.90
48946;DHT22;34999;50.940;3.998;2022-07-23T03:30:19;13.20;99.90
48946;DHT22;34999;50.940;3.998;2022-07-23T03:32:48;13.20;99.90
48946;DHT22;34999;50.940;3.998;2022-07-23T03:35:16;13.20;99.90
48946;DHT22;34999;50.940;3.998;2022-07-23T03:37:45;13.20;99.90
48946;DHT22;34999;50.940;3.998;2022-07-23T03:40:13;13.10;99.90
48946;DHT22;34999;50.940;3.998;2022-07-23T03:42:43;13.10;99.90
48946;DHT22;34999;50.940;3.998;2022-07-23T03:45:12;13.10;99.90
48946;DHT22;34999;50.940;3.998;2022-07-23T03:47:41;13.10;99.90
48946;DHT22;34999;50.940;3.998;2022-07-23T03:50:10;13.10;99.90
48946;DHT22;34999;50.940;3.998;2022-07-23T03:52:39;13.10;99.90
48946;DHT22;34999;50.940;3.998;2022-07-23T03:55:08;13.10;99.90
48946;DHT22;34999;50.940;3.998;2022-07-23T03:57:36;13.10;99.90
48946;DHT22;34999;50.940;3.998;2022-07-23T04:00:08;13.00;99.90
48946;DHT22;34999;50.940;3.998;2022-07-23T04:02:37;13.00;99.90
48946;DHT22;34999;50.940;3.998;2022-07-23T04:05:43;13.00;99.90
48946;DHT22;34999;50.940;3.998;2022-07-23T04:08:15;13.00;99.90
48946;DHT22;34999;50.940;3.998;2022-07-23T04:10:43;13.00;99.90
48946;DHT22;34999;50.940;3.998;2022-07-23T04:13:11;13.10;99.90
48946;DHT22;34999;50.940;3.998;2022-07-23T04:15:41;13.10;99.90
48946;DHT22;34999;50.940;3.998;2022-07-23T04:18:09;13.10;99.90
48946;DHT22;34999;50.940;3.998;2022-07-23T04:20:38;13.10;99.90
48946;DHT22;34999;50.940;3.998;2022-07-23T04:23:10;13.10;99.90
48946;DHT22;34999;50.940;3.998;2022-07-23T04:25:39;13.10;99.90
48946;DHT22;34999;50.940;3.998;2022-07-23T04:28:09;13.10;99.90
48946;DHT22;34999;50.940;3.998;2022-07-23T04:30:38;13.10;99.90
48946;DHT22;34999;50.940;3.998;2022-07-23T04:33:07;13.10;99.90
48946;DHT22;34999;50.940;3.998;2022-07-23T04:35:36;13.10;99.90
48946;DHT22;34999;50.940;3.998;2022-07-23T04:38:05;13.20;99.90
48946;DHT22;34999;50.940;3.998;2022-07-23T04:40:34;13.20;99.90
48946;DHT22;34999;50.940;3.998;2022-07-23T04:43:02;13.30;99.90
48946;DHT22;34999;50.940;3.998;2022-07-23T04:45:32;13.30;99.90
48946;DHT22;34999;50.940;3.998;2022-07-23T04:48:00;13.40;99.90
48946;DHT22;34999;50.940;3.998;2022-07-23T04:50:31;13.50;99.90
48946;DHT22;34999;50.940;3.998;2022-07-23T04:52:59;13.70;99.90
48946;DHT22;34999;50.940;3.998;2022-07-23T04:55:30;13.90;99.90
48946;DHT22;34999;50.940;3.998;2022-07-23T04:57:58;14.10;99.90
48946;DHT22;34999;50.940;3.998;2022-07-23T05:03:35;14.40;99.90
48946;DHT22;34999;50.940;3.998;2022-07-23T05:06:05;14.60;99.90
48946;DHT22;34999;50.940;3.998;2022-07-23T05:08:33;14.70;99.90
48946;DHT22;34999;50.940;3.998;2022-07-23T05:11:02;14.70;99.90
48946;DHT22;34999;50.940;3.998;2022-07-23T05:13:32;14.80;99.90
48946;DHT22;34999;50.940;3.998;2022-07-23T05:16:01;14.80;99.90
48946;DHT22;34999;50.940;3.998;2022-07-23T05:18:29;14.70;99.90
48946;DHT22;34999;50.940;3.998;2022-07-23T05:20:58;14.80;99.90
48946;DHT22;34999;50.940;3.998;2022-07-23T05:23:27;14.70;99.90
48946;DHT22;34999;50.940;3.998;2022-07-23T05:25:56;14.70;99.90
48946;DHT22;34999;50.940;3.998;2022-07-23T05:28:24;14.70;99.90
48946;DHT22;34999;50.940;3.998;2022-07-23T05:30:52;14.80;99.90
48946;DHT22;34999;50.940;3.998;2022-07-23T05:33:21;14.80;99.90
48946;DHT22;34999;50.940;3.998;2022-07-23T05:35:49;14.80;99.90
48946;DHT22;34999;50.940;3.998;2022-07-23T05:38:17;14.90;99.90
48946;DHT22;34999;50.940;3.998;2022-07-23T05:40:47;15.10;99.90
48946;DHT22;34999;50.940;3.998;2022-07-23T05:43:15;15.20;99.90
48946;DHT22;34999;50.940;3.998;2022-07-23T05:45:44;15.40;99.90
48946;DHT22;34999;50.940;3.998;2022-07-23T05:48:12;15.60;99.90
48946;DHT22;34999;50.940;3.998;2022-07-23T05:50:40;15.90;99.90
48946;DHT22;34999;50.940;3.998;2022-07-23T05:53:09;16.20;99.90
48946;DHT22;34999;50.940;3.998;2022-07-23T05:55:40;16.40;99.90
48946;DHT22;34999;50.940;3.998;2022-07-23T05:58:09;16.60;99.90
48946;DHT22;34999;50.940;3.998;2022-07-23T06:00:38;16.60;99.90
48946;DHT22;34999;50.940;3.998;2022-07-23T06:03:06;16.70;99.90
48946;DHT22;34999;50.940;3.998;2022-07-23T06:05:34;16.70;99.90
48946;DHT22;34999;50.940;3.998;2022-07-23T06:08:05;16.70;99.90
48946;DHT22;34999;50.940;3.998;2022-07-23T06:10:34;16.60;99.90
48946;DHT22;34999;50.940;3.998;2022-07-23T06:13:02;16.60;99.90
48946;DHT22;34999;50.940;3.998;2022-07-23T06:15:32;16.80;99.90
48946;DHT22;34999;50.940;3.998;2022-07-23T06:18:00;17.10;99.90
48946;DHT22;34999;50.940;3.998;2022-07-23T06:20:29;17.40;99.90
48946;DHT22;34999;50.940;3.998;2022-07-23T06:22:57;17.70;99.90
48946;DHT22;34999;50.940;3.998;2022-07-23T06:25:26;18.00;99.90
48946;DHT22;34999;50.940;3.998;2022-07-23T06:27:54;18.40;99.90
48946;DHT22;34999;50.940;3.998;2022-07-23T06:30:24;18.70;99.90
48946;DHT22;34999;50.940;3.998;2022-07-23T06:32:55;19.10;99.90
48946;DHT22;34999;50.940;3.998;2022-07-23T06:35:23;19.30;99.90
48946;DHT22;34999;50.940;3.998;2022-07-23T06:37:52;19.30;99.90
48946;DHT22;34999;50.940;3.998;2022-07-23T06:40:21;19.20;99.90
48946;DHT22;34999;50.940;3.998;2022-07-23T06:42:49;19.30;99.90
48946;DHT22;34999;50.940;3.998;2022-07-23T06:45:18;19.50;99.90
48946;DHT22;34999;50.940;3.998;2022-07-23T06:47:46;19.70;99.90
48946;DHT22;34999;50.940;3.998;2022-07-23T06:50:16;20.00;99.90
48946;DHT22;34999;50.940;3.998;2022-07-23T06:52:44;20.20;99.90
48946;DHT22;34999;50.940;3.998;2022-07-23T06:55:13;20.40;99.90
48946;DHT22;34999;50.940;3.998;2022-07-23T06:57:41;20.70;99.90
48946;DHT22;34999;50.940;3.998;2022-07-23T07:00:11;20.90;99.90
48946;DHT22;34999;50.940;3.998;2022-07-23T07:02:39;21.10;99.90
48946;DHT22;34999;50.940;3.998;2022-07-23T07:05:07;21.40;99.90
48946;DHT22;34999;50.940;3.998;2022-07-23T07:07:37;21.50;99.90
48946;DHT22;34999;50.940;3.998;2022-07-23T07:10:06;21.70;99.90
48946;DHT22;34999;50.940;3.998;2022-07-23T07:12:41;21.90;99.90
48946;DHT22;34999;50.940;3.998;2022-07-23T07:15:11;21.90;99.90
48946;DHT22;34999;50.940;3.998;2022-07-23T07:17:40;21.90;99.90
48946;DHT22;34999;50.940;3.998;2022-07-23T07:20:10;22.20;99.90
48946;DHT22;34999;50.940;3.998;2022-07-23T07:22:40;22.50;99.90
48946;DHT22;34999;50.940;3.998;2022-07-23T07:25:08;22.70;99.90
48946;DHT22;34999;50.940;3.998;2022-07-23T07:27:37;22.70;99.90
48946;DHT22;34999;50.940;3.998;2022-07-23T07:30:06;22.80;99.90
48946;DHT22;34999;50.940;3.998;2022-07-23T07:32:34;23.00;99.90
48946;DHT22;34999;50.940;3.998;2022-07-23T07:35:24;23.30;99.90
48946;DHT22;34999;50.940;3.998;2022-07-23T07:37:53;23.10;99.90
48946;DHT22;34999;50.940;3.998;2022-07-23T07:40:22;22.70;99.90
48946;DHT22;34999;50.940;3.998;2022-07-23T07:42:53;22.80;99.90
48946;DHT22;34999;50.940;3.998;2022-07-23T07:45:24;23.20;99.90
48946;DHT22;34999;50.940;3.998;2022-07-23T07:47:53;23.80;99.90
48946;DHT22;34999;50.940;3.998;2022-07-23T07:50:24;24.00;99.90
48946;DHT22;34999;50.940;3.998;2022-07-23T07:52:54;24.50;99.90
48946;DHT22;34999;50.940;3.998;2022-07-23T07:55:22;24.80;99.90
48946;DHT22;34999;50.940;3.998;2022-07-23T07:57:52;24.90;99.90
48946;DHT22;34999;50.940;3.998;2022-07-23T08:00:20;25.10;99.90
48946;DHT22;34999;50.940;3.998;2022-07-23T08:02:51;25.50;99.90
48946;DHT22;34999;50.940;3.998;2022-07-23T08:05:21;25.60;99.90
48946;DHT22;34999;50.940;3.998;2022-07-23T08:07:56;25.90;99.90
48946;DHT22;34999;50.940;3.998;2022-07-23T08:10:25;26.40;99.90
48946;DHT22;34999;50.940;3.998;2022-07-23T08:12:55;26.40;99.90
48946;DHT22;34999;50.940;3.998;2022-07-23T08:15:25;26.70;99.90
48946;DHT22;34999;50.940;3.998;2022-07-23T08:17:54;26.90;99.90
48946;DHT22;34999;50.940;3.998;2022-07-23T08:20:23;27.20;99.90
48946;DHT22;34999;50.940;3.998;2022-07-23T08:22:53;27.40;99.90
48946;DHT22;34999;50.940;3.998;2022-07-23T08:25:25;27.10;99.90
48946;DHT22;34999;50.940;3.998;2022-07-23T08:27:54;28.00;99.90
48946;DHT22;34999;50.940;3.998;2022-07-23T08:30:23;28.50;99.90
48946;DHT22;34999;50.940;3.998;2022-07-23T08:32:53;28.10;99.90
48946;DHT22;34999;50.940;3.998;2022-07-23T08:35:26;27.70;99.90
48946;DHT22;34999;50.940;3.998;2022-07-23T08:37:55;27.30;99.90
48946;DHT22;34999;50.940;3.998;2022-07-23T08:40:27;26.80;99.90
48946;DHT22;34999;50.940;3.998;2022-07-23T08:42:57;27.10;99.90
48946;DHT22;34999;50.940;3.998;2022-07-23T08:45:26;27.60;99.90
48946;DHT22;34999;50.940;3.998;2022-07-23T08:47:56;28.10;99.90
48946;DHT22;34999;50.940;3.998;2022-07-23T08:50:29;28.50;99.90
48946;DHT22;34999;50.940;3.998;2022-07-23T08:52:59;28.20;99.90
48946;DHT22;34999;50.940;3.998;2022-07-23T08:55:31;28.30;99.90
48946;DHT22;34999;50.940;3.998;2022-07-23T08:57:59;28.00;99.90
48946;DHT22;34999;50.940;3.998;2022-07-23T09:00:28;27.90;99.90
48946;DHT22;34999;50.940;3.998;2022-07-23T09:02:56;28.00;99.90
48946;DHT22;34999;50.940;3.998;2022-07-23T09:05:25;28.90;99.90
48946;DHT22;34999;50.940;3.998;2022-07-23T09:08:08;29.10;99.90
48946;DHT22;34999;50.940;3.998;2022-07-23T09:10:49;29.00;99.90
48946;DHT22;34999;50.940;3.998;2022-07-23T09:13:30;28.80;99.90
48946;DHT22;34999;50.940;3.998;2022-07-23T09:16:03;28.20;99.90
48946;DHT22;34999;50.940;3.998;2022-07-23T09:18:40;27.80;99.90
48946;DHT22;34999;50.940;3.998;2022-07-23T09:21:29;27.80;99.90
48946;DHT22;34999;50.940;3.998;2022-07-23T09:24:00;28.10;99.90
48946;DHT22;34999;50.940;3.998;2022-07-23T09:26:33;28.40;99.90
48946;DHT22;34999;50.940;3.998;2022-07-23T09:29:07;28.60;99.90
48946;DHT22;34999;50.940;3.998;2022-07-23T09:31:45;29.00;99.90
48946;DHT22;34999;50.940;3.998;2022-07-23T09:34:18;29.20;99.90
48946;DHT22;34999;50.940;3.998;2022-07-23T09:36:52;29.30;99.90
48946;DHT22;34999;50.940;3.998;2022-07-23T09:39:28;29.70;99.90
48946;DHT22;34999;50.940;3.998;2022-07-23T09:42:12;30.20;99.90
48946;DHT22;34999;50.940;3.998;2022-07-23T09:44:41;30.40;99.90
48946;DHT22;34999;50.940;3.998;2022-07-23T09:47:10;30.20;99.90
48946;DHT22;34999;50.940;3.998;2022-07-23T09:49:39;29.50;99.90
48946;DHT22;34999;50.940;3.998;2022-07-23T09:52:07;29.20;99.90
48946;DHT22;34999;50.940;3.998;2022-07-23T09:54:38;29.40;99.90
48946;DHT22;34999;50.940;3.998;2022-07-23T09:57:10;30.20;99.90
48946;DHT22;34999;50.940;3.998;2022-07-23T09:59:43;31.00;99.90
48946;DHT22;34999;50.940;3.998;2022-07-23T10:02:13;31.40;99.90
48946;DHT22;34999;50.940;3.998;2022-07-23T10:05:21;31.40;99.90
48946;DHT22;34999;50.940;3.998;2022-07-23T10:07:59;31.10;99.90
48946;DHT22;34999;50.940;3.998;2022-07-23T10:10:30;31.30;99.90
48946;DHT22;34999;50.940;3.998;2022-07-23T10:13:01;31.60;99.90
48946;DHT22;34999;50.940;3.998;2022-07-23T10:15:48;32.10;99.70
48946;DHT22;34999;50.940;3.998;2022-07-23T10:18:18;31.80;99.90
48946;DHT22;34999;50.940;3.998;2022-07-23T10:20:47;31.60;99.40
48946;DHT22;34999;50.940;3.998;2022-07-23T10:23:37;31.80;99.90
48946;DHT22;34999;50.940;3.998;2022-07-23T10:26:15;32.10;99.20
48946;DHT22;34999;50.940;3.998;2022-07-23T10:29:02;31.90;97.20
48946;DHT22;34999;50.940;3.998;2022-07-23T10:31:41;31.60;98.80
48946;DHT22;34999;50.940;3.998;2022-07-23T10:34:31;32.00;99.50
48946;DHT22;34999;50.940;3.998;2022-07-23T10:37:12;31.60;96.90
48946;DHT22;34999;50.940;3.998;2022-07-23T10:39:48;31.40;98.10
48946;DHT22;34999;50.940;3.998;2022-07-23T10:42:17;31.90;99.30
48946;DHT22;34999;50.940;3.998;2022-07-23T10:44:48;31.90;96.40
48946;DHT22;34999;50.940;3.998;2022-07-23T10:47:26;31.70;96.90
48946;DHT22;34999;50.940;3.998;2022-07-23T10:50:22;31.90;98.60
48946;DHT22;34999;50.940;3.998;2022-07-23T10:53:13;32.40;97.50
48946;DHT22;34999;50.940;3.998;2022-07-23T10:55:51;32.70;97.40
48946;DHT22;34999;50.940;3.998;2022-07-23T10:58:47;32.90;96.80
48946;DHT22;34999;50.940;3.998;2022-07-23T11:01:37;32.40;95.90
48946;DHT22;34999;50.940;3.998;2022-07-23T11:04:06;32.20;98.20
48946;DHT22;34999;50.940;3.998;2022-07-23T11:07:08;32.30;95.60
48946;DHT22;34999;50.940;3.998;2022-07-23T11:09:41;32.30;96.60
48946;DHT22;34999;50.940;3.998;2022-07-23T11:12:34;32.10;96.30
48946;DHT22;34999;50.940;3.998;2022-07-23T11:15:05;31.60;96.90
48946;DHT22;34999;50.940;3.998;2022-07-23T11:17:38;31.10;97.70
48946;DHT22;34999;50.940;3.998;2022-07-23T11:22:54;31.30;97.10
48946;DHT22;34999;50.940;3.998;2022-07-23T11:25:32;31.70;97.70
48946;DHT22;34999;50.940;3.998;2022-07-23T11:28:12;31.90;97.80
48946;DHT22;34999;50.940;3.998;2022-07-23T11:30:43;31.30;96.30
48946;DHT22;34999;50.940;3.998;2022-07-23T11:33:22;31.00;96.90
48946;DHT22;34999;50.940;3.998;2022-07-23T11:36:01;30.80;98.00
48946;DHT22;34999;50.940;3.998;2022-07-23T11:38:31;30.50;97.30
48946;DHT22;34999;50.940;3.998;2022-07-23T11:41:00;30.10;97.90
48946;DHT22;34999;50.940;3.998;2022-07-23T11:43:29;30.10;98.20
48946;DHT22;34999;50.940;3.998;2022-07-23T11:45:58;30.20;98.30
48946;DHT22;34999;50.940;3.998;2022-07-23T11:48:30;30.20;98.40
48946;DHT22;34999;50.940;3.998;2022-07-23T11:51:07;30.10;99.30
48946;DHT22;34999;50.940;3.998;2022-07-23T11:53:36;30.30;98.90
48946;DHT22;34999;50.940;3.998;2022-07-23T11:56:05;30.50;99.60
48946;DHT22;34999;50.940;3.998;2022-07-23T11:58:34;30.10;96.70
48946;DHT22;34999;50.940;3.998;2022-07-23T12:01:02;30.00;96.80
48946;DHT22;34999;50.940;3.998;2022-07-23T12:03:33;30.10;98.50
48946;DHT22;34999;50.940;3.998;2022-07-23T12:06:02;30.20;96.70
48946;DHT22;34999;50.940;3.998;2022-07-23T12:08:30;29.50;96.30
48946;DHT22;34999;50.940;3.998;2022-07-23T12:10:58;28.90;98.20
48946;DHT22;34999;50.940;3.998;2022-07-23T12:13:27;29.00;99.30
48946;DHT22;34999;50.940;3.998;2022-07-23T12:15:57;28.90;97.80
48946;DHT22;34999;50.940;3.998;2022-07-23T12:18:27;29.00;97.80
48946;DHT22;34999;50.940;3.998;2022-07-23T12:20:58;28.60;97.40
48946;DHT22;34999;50.940;3.998;2022-07-23T12:23:30;28.60;99.40
48946;DHT22;34999;50.940;3.998;2022-07-23T12:26:01;28.80;99.90
48946;DHT22;34999;50.940;3.998;2022-07-23T12:28:32;28.70;99.80
48946;DHT22;34999;50.940;3.998;2022-07-23T12:31:01;28.70;98.70
48946;DHT22;34999;50.940;3.998;2022-07-23T12:33:31;28.70;99.00
48946;DHT22;34999;50.940;3.998;2022-07-23T12:36:03;28.60;99.70
48946;DHT22;34999;50.940;3.998;2022-07-23T12:38:38;28.60;99.90
48946;DHT22;34999;50.940;3.998;2022-07-23T12:41:06;28.50;99.90
48946;DHT22;34999;50.940;3.998;2022-07-23T12:43:37;28.40;99.60
48946;DHT22;34999;50.940;3.998;2022-07-23T12:46:08;28.20;99.90
48946;DHT22;34999;50.940;3.998;2022-07-23T12:48:39;28.30;99.90
48946;DHT22;34999;50.940;3.998;2022-07-23T12:51:14;28.40;99.90
48946;DHT22;34999;50.940;3.998;2022-07-23T12:53:52;28.30;99.90
48946;DHT22;34999;50.940;3.998;2022-07-23T12:56:22;28.40;99.90
48946;DHT22;34999;50.940;3.998;2022-07-23T12:59:04;28.50;99.90
48946;DHT22;34999;50.940;3.998;2022-07-23T13:01:35;28.50;99.90
48946;DHT22;34999;50.940;3.998;2022-07-23T13:04:06;28.60;99.90
48946;DHT22;34999;50.940;3.998;2022-07-23T13:06:42;28.60;99.90
48946;DHT22;34999;50.940;3.998;2022-07-23T13:09:13;28.70;99.90
48946;DHT22;34999;50.940;3.998;2022-07-23T13:11:42;28.70;99.90
48946;DHT22;34999;50.940;3.998;2022-07-23T13:14:30;28.70;99.90
48946;DHT22;34999;50.940;3.998;2022-07-23T13:16:59;28.70;99.70
48946;DHT22;34999;50.940;3.998;2022-07-23T13:19:27;28.90;99.90
48946;DHT22;34999;50.940;3.998;2022-07-23T13:21:57;29.00;99.90
48946;DHT22;34999;50.940;3.998;2022-07-23T13:24:30;28.80;99.90
48946;DHT22;34999;50.940;3.998;2022-07-23T13:26:58;28.80;99.90
48946;DHT22;34999;50.940;3.998;2022-07-23T13:29:29;28.70;99.90
48946;DHT22;34999;50.940;3.998;2022-07-23T13:31:58;28.90;99.90
48946;DHT22;34999;50.940;3.998;2022-07-23T13:34:26;29.10;99.90
48946;DHT22;34999;50.940;3.998;2022-07-23T13:36:54;29.40;99.90
48946;DHT22;34999;50.940;3.998;2022-07-23T13:39:24;29.40;99.90
48946;DHT22;34999;50.940;3.998;2022-07-23T13:42:00;29.50;99.90
48946;DHT22;34999;50.940;3.998;2022-07-23T13:44:32;29.70;99.90
48946;DHT22;34999;50.940;3.998;2022-07-23T13:47:02;29.80;99.90
48946;DHT22;34999;50.940;3.998;2022-07-23T13:49:31;29.90;99.90
48946;DHT22;34999;50.940;3.998;2022-07-23T13:52:02;29.90;99.90
48946;DHT22;34999;50.940;3.998;2022-07-23T13:54:35;29.90;99.90
48946;DHT22;34999;50.940;3.998;2022-07-23T13:57:04;30.20;99.90
48946;DHT22;34999;50.940;3.998;2022-07-23T13:59:33;30.10;99.90
48946;DHT22;34999;50.940;3.998;2022-07-23T14:02:01;30.10;99.90
48946;DHT22;34999;50.940;3.998;2022-07-23T14:04:50;30.00;99.90
48946;DHT22;34999;50.940;3.998;2022-07-23T14:07:19;29.90;99.90
48946;DHT22;34999;50.940;3.998;2022-07-23T14:09:49;29.80;99.90
48946;DHT22;34999;50.940;3.998;2022-07-23T14:12:18;29.10;99.30
48946;DHT22;34999;50.940;3.998;2022-07-23T14:14:49;28.70;99.90
48946;DHT22;34999;50.940;3.998;2022-07-23T14:17:20;28.30;99.90
48946;DHT22;34999;50.940;3.998;2022-07-23T14:19:52;28.50;99.90
48946;DHT22;34999;50.940;3.998;2022-07-23T14:22:20;28.80;99.90
48946;DHT22;34999;50.940;3.998;2022-07-23T14:24:50;29.10;99.90
48946;DHT22;34999;50.940;3.998;2022-07-23T14:27:19;29.10;99.90
48946;DHT22;34999;50.940;3.998;2022-07-23T14:29:47;28.90;99.90
48946;DHT22;34999;50.940;3.998;2022-07-23T14:32:15;28.90;99.90
48946;DHT22;34999;50.940;3.998;2022-07-23T14:34:43;28.80;99.90
48946;DHT22;34999;50.940;3.998;2022-07-23T14:37:16;28.50;99.90
48946;DHT22;34999;50.940;3.998;2022-07-23T14:39:45;28.40;99.90
48946;DHT22;34999;50.940;3.998;2022-07-23T14:42:18;28.40;99.90
48946;DHT22;34999;50.940;3.998;2022-07-23T14:44:46;28.60;99.90
48946;DHT22;34999;50.940;3.998;2022-07-23T14:47:15;28.90;99.90
48946;DHT22;34999;50.940;3.998;2022-07-23T14:49:48;29.20;99.90
48946;DHT22;34999;50.940;3.998;2022-07-23T14:52:16;29.40;99.90
48946;DHT22;34999;50.940;3.998;2022-07-23T14:54:44;29.60;99.90
48946;DHT22;34999;50.940;3.998;2022-07-23T14:57:17;29.70;99.90
48946;DHT22;34999;50.940;3.998;2022-07-23T14:59:52;29.90;99.90
48946;DHT22;34999;50.940;3.998;2022-07-23T15:02:22;30.20;99.90
48946;DHT22;34999;50.940;3.998;2022-07-23T15:04:50;30.50;99.90
48946;DHT22;34999;50.940;3.998;2022-07-23T15:07:18;30.60;99.90
48946;DHT22;34999;50.940;3.998;2022-07-23T15:09:47;30.70;99.70
48946;DHT22;34999;50.940;3.998;2022-07-23T15:12:17;30.50;99.90
48946;DHT22;34999;50.940;3.998;2022-07-23T15:14:48;30.10;99.90
48946;DHT22;34999;50.940;3.998;2022-07-23T15:17:16;29.70;99.90
48946;DHT22;34999;50.940;3.998;2022-07-23T15:19:46;29.80;99.90
48946;DHT22;34999;50.940;3.998;2022-07-23T15:22:15;29.90;99.90
48946;DHT22;34999;50.940;3.998;2022-07-23T15:24:44;30.20;99.90
48946;DHT22;34999;50.940;3.998;2022-07-23T15:27:12;30.50;99.90
48946;DHT22;34999;50.940;3.998;2022-07-23T15:29:42;30.60;99.90
48946;DHT22;34999;50.940;3.998;2022-07-23T15:32:10;30.70;99.90
48946;DHT22;34999;50.940;3.998;2022-07-23T15:34:41;30.70;99.40
48946;DHT22;34999;50.940;3.998;2022-07-23T15:37:10;30.80;99.90
48946;DHT22;34999;50.940;3.998;2022-07-23T15:39:40;30.80;99.50
48946;DHT22;34999;50.940;3.998;2022-07-23T15:42:08;30.60;99.90
48946;DHT22;34999;50.940;3.998;2022-07-23T15:44:42;30.50;99.90
48946;DHT22;34999;50.940;3.998;2022-07-23T15:47:14;30.30;99.90
48946;DHT22;34999;50.940;3.998;2022-07-23T15:49:44;30.40;99.90
48946;DHT22;34999;50.940;3.998;2022-07-23T15:52:13;30.50;99.90
48946;DHT22;34999;50.940;3.998;2022-07-23T15:54:42;30.80;99.90
48946;DHT22;34999;50.940;3.998;2022-07-23T15:57:10;30.90;99.80
48946;DHT22;34999;50.940;3.998;2022-07-23T15:59:38;31.00;99.70